Time;durP1;ratioP1;P1;durP2;ratioP2;P2;SDS_P1;SDS_P2;PMS_P1;PMS_P2;Temp;Humidity;BMP_temperature;BMP_pressure;BME280_temperature;BME280_humidity;BME280_pressure;Samples;Min_cycle;Max_cycle;Signal;HPM_P1;HPM_P2
2023/02/01 00:01:48;;;;;;;9.13;2.85;;;;;;;2.61;79.83;96796.06;5036186;28;20721;-81
2023/02/01 00:04:15;;;;;;;7.35;3.00;;;;;;;2.65;79.40;96794.47;5044122;28;20041;-81
2023/02/01 00:06:41;;;;;;;5.07;2.95;;;;;;;2.65;79.84;96785.59;5036716;28;20418;-83
2023/02/01 00:09:08;;;;;;;6.97;3.28;;;;;;;2.69;78.72;96784.00;5035853;28;20041;-80
2023/02/01 00:11:34;;;;;;;5.95;3.50;;;;;;;2.69;79.30;96784.81;5039211;28;20044;-81
2023/02/01 00:14:02;;;;;;;5.80;2.75;;;;;;;2.69;79.41;96776.75;5036118;28;20045;-81
2023/02/01 00:16:31;;;;;;;6.55;3.28;;;;;;;2.69;79.21;96787.50;5038440;28;20041;-83
2023/02/01 00:18:59;;;;;;;5.55;3.10;;;;;;;2.77;79.33;96780.88;5034994;28;20042;-81
2023/02/01 00:21:26;;;;;;;6.40;2.95;;;;;;;2.77;78.94;96781.66;5035770;28;20049;-80
2023/02/01 00:23:52;;;;;;;5.40;3.20;;;;;;;2.74;78.69;96776.78;5036058;28;20037;-81
2023/02/01 00:26:21;;;;;;;5.35;3.22;;;;;;;2.78;78.81;96769.03;5035100;28;20064;-79
2023/02/01 00:28:47;;;;;;;5.13;2.92;;;;;;;2.79;78.65;96768.75;5035438;28;20042;-84
2023/02/01 00:31:15;;;;;;;7.13;3.05;;;;;;;2.79;78.62;96758.00;5037619;28;20049;-82
2023/02/01 00:33:42;;;;;;;5.55;3.35;;;;;;;2.80;78.43;96751.56;5041751;28;20050;-83
2023/02/01 00:36:14;;;;;;;5.85;3.00;;;;;;;2.87;78.18;96754.84;5035907;28;20048;-83
2023/02/01 00:38:41;;;;;;;5.30;3.15;;;;;;;2.85;78.64;96761.53;5036986;28;20045;-86
2023/02/01 00:41:10;;;;;;;6.75;2.83;;;;;;;2.89;78.21;96751.91;5040369;28;20048;-85
2023/02/01 00:43:37;;;;;;;5.40;3.15;;;;;;;2.93;77.71;96752.19;5044493;28;20052;-83
2023/02/01 00:46:04;;;;;;;5.72;2.83;;;;;;;2.93;78.09;96742.25;5036436;28;20033;-82
2023/02/01 00:48:32;;;;;;;5.68;2.80;;;;;;;2.94;78.38;96740.34;5035882;28;20045;-82
2023/02/01 00:51:00;;;;;;;5.20;2.90;;;;;;;2.94;78.33;96749.22;5036825;28;20393;-84
2023/02/01 00:53:26;;;;;;;5.82;3.05;;;;;;;2.95;77.77;96750.84;5037515;28;20497;-83
2023/02/01 00:55:53;;;;;;;5.95;3.25;;;;;;;3.04;77.85;96749.31;5036043;28;20378;-81
2023/02/01 00:58:19;;;;;;;7.63;4.30;;;;;;;2.88;78.26;96751.09;5034049;28;20480;-81
2023/02/01 01:00:46;;;;;;;8.18;3.95;;;;;;;2.83;79.36;96751.06;5035533;28;20037;-82
2023/02/01 01:03:18;;;;;;;8.40;4.75;;;;;;;2.85;79.26;96740.81;5035166;28;20065;-81
2023/02/01 01:05:46;;;;;;;7.15;4.05;;;;;;;2.81;79.64;96745.09;5034487;28;20068;-81
2023/02/01 01:08:13;;;;;;;7.28;3.78;;;;;;;2.79;79.95;96752.63;5034200;28;20037;-82
2023/02/01 01:10:40;;;;;;;7.72;4.50;;;;;;;2.72;80.55;96745.88;5037407;28;20037;-81
2023/02/01 01:13:06;;;;;;;8.52;4.43;;;;;;;2.69;81.32;96751.75;5034548;28;20120;-82
2023/02/01 01:15:36;;;;;;;7.20;4.28;;;;;;;2.66;81.70;96753.06;5035061;28;20045;-80
2023/02/01 01:18:03;;;;;;;9.68;4.22;;;;;;;2.59;82.44;96749.78;5033648;28;20045;-81
2023/02/01 01:20:29;;;;;;;7.85;4.35;;;;;;;2.56;83.00;96740.38;5035170;28;20095;-81
2023/02/01 01:22:57;;;;;;;10.00;4.63;;;;;;;2.61;83.09;96753.84;5035411;28;20041;-78
2023/02/01 01:25:24;;;;;;;8.65;4.70;;;;;;;2.54;83.62;96752.44;5034918;28;20044;-81
2023/02/01 01:27:50;;;;;;;8.98;5.18;;;;;;;2.53;83.97;96748.13;5034532;28;20037;-84
2023/02/01 01:30:17;;;;;;;8.65;4.85;;;;;;;2.51;84.34;96734.16;5034021;28;20041;-82
2023/02/01 01:32:44;;;;;;;11.60;5.40;;;;;;;2.44;84.82;96733.53;5035129;28;20490;-82
2023/02/01 01:35:12;;;;;;;10.57;5.03;;;;;;;2.42;85.21;96735.69;5033924;28;20041;-80
2023/02/01 01:37:38;;;;;;;11.45;5.10;;;;;;;2.47;85.26;96744.59;5034135;28;20494;-81
2023/02/01 01:40:08;;;;;;;10.25;6.00;;;;;;;2.37;85.84;96733.75;5036611;28;20051;-82
2023/02/01 01:42:38;;;;;;;11.85;5.40;;;;;;;2.35;86.33;96725.16;5043269;28;20049;-83
2023/02/01 01:45:07;;;;;;;10.38;6.15;;;;;;;2.32;86.48;96715.72;5034251;28;20048;-83
2023/02/01 01:47:38;;;;;;;12.02;6.03;;;;;;;2.31;86.57;96714.09;5034955;28;20037;-80
2023/02/01 01:50:07;;;;;;;10.18;5.82;;;;;;;2.31;87.07;96707.91;5033839;28;20041;-80
2023/02/01 01:52:35;;;;;;;10.85;5.78;;;;;;;2.29;86.79;96705.47;5043043;28;20045;-81
2023/02/01 01:55:02;;;;;;;9.88;5.53;;;;;;;2.27;86.85;96707.59;5034738;28;20056;-82
2023/02/01 01:57:34;;;;;;;11.95;6.63;;;;;;;2.24;86.96;96700.03;5043166;28;20441;-88
2023/02/01 02:00:06;;;;;;;12.73;5.95;;;;;;;2.24;87.17;96702.72;5036025;28;20045;-84
2023/02/01 02:02:33;;;;;;;10.80;5.78;;;;;;;2.28;86.61;96709.22;5035377;28;20065;-81
2023/02/01 02:05:00;;;;;;;7.93;5.18;;;;;;;2.32;86.76;96710.34;5034137;28;20679;-82
2023/02/01 02:07:31;;;;;;;10.25;5.93;;;;;;;2.27;86.66;96706.78;5033918;28;20049;-82
2023/02/01 02:09:57;;;;;;;10.38;5.95;;;;;;;2.29;87.12;96705.47;5037439;28;20037;-80
2023/02/01 02:12:24;;;;;;;10.52;5.82;;;;;;;2.26;87.05;96700.63;5034026;28;20506;-85
2023/02/01 02:14:52;;;;;;;15.48;6.95;;;;;;;2.26;86.97;96700.63;5035589;28;20038;-81
2023/02/01 02:17:30;;;;;;;10.60;5.72;;;;;;;2.26;87.15;96700.63;5034677;28;20064;-82
2023/02/01 02:20:23;;;;;;;11.55;6.45;;;;;;;2.28;87.07;96713.78;5038803;28;20050;-80
2023/02/01 02:23:13;;;;;;;11.45;6.55;;;;;;;2.29;86.92;96710.03;5047187;28;20038;-83
2023/02/01 02:25:55;;;;;;;9.40;5.70;;;;;;;2.37;86.90;96706.88;5039682;28;20044;-86
2023/02/01 02:28:44;;;;;;;10.13;6.15;;;;;;;2.30;87.10;96700.94;5037181;28;21878;-81
2023/02/01 02:31:39;;;;;;;11.15;5.93;;;;;;;2.28;87.43;96695.78;5038745;28;20045;-84
2023/02/01 02:34:16;;;;;;;13.50;6.00;;;;;;;2.25;87.92;96690.94;5037939;28;20041;-81
2023/02/01 02:36:56;;;;;;;10.98;5.68;;;;;;;2.25;87.79;96685.56;5037919;28;20048;-80
2023/02/01 02:39:35;;;;;;;10.95;6.10;;;;;;;2.26;87.78;96673.75;5036930;28;20057;-81
2023/02/01 02:47:57;;;;;;;12.00;5.93;;;;;;;2.18;88.45;96666.16;5036665;28;20226;-86
2023/02/01 03:04:18;;;;;;;10.00;6.32;;;;;;;2.10;89.82;96658.56;5040471;28;20406;-84
2023/02/01 03:06:46;;;;;;;10.45;5.88;;;;;;;2.12;89.88;96671.75;5040617;28;20065;-85
2023/02/01 03:09:20;;;;;;;10.95;6.80;;;;;;;2.10;89.91;96669.31;5039922;28;20045;-80
2023/02/01 03:14:39;;;;;;;9.35;6.57;;;;;;;2.12;89.74;96672.56;5038944;28;20048;-80
2023/02/01 03:17:11;;;;;;;11.15;6.20;;;;;;;2.11;89.92;96670.13;5037236;28;20048;-81
2023/02/01 03:19:43;;;;;;;11.32;6.65;;;;;;;2.09;90.04;96665.81;5038399;28;20041;-80
2023/02/01 03:22:15;;;;;;;11.00;6.03;;;;;;;2.10;90.07;96674.69;5037127;28;20049;-82
2023/02/01 03:24:47;;;;;;;9.60;5.25;;;;;;;2.10;90.16;96658.56;5036964;28;20053;-84
2023/02/01 03:27:19;;;;;;;10.57;6.68;;;;;;;2.09;90.14;96656.97;5036507;28;20045;-80
2023/02/01 03:29:50;;;;;;;12.15;5.47;;;;;;;2.09;89.87;96660.44;5036719;28;20037;-80
2023/02/01 03:32:17;;;;;;;11.32;6.38;;;;;;;2.10;90.09;96669.31;5037506;28;20048;-82
2023/02/01 03:34:44;;;;;;;9.68;6.70;;;;;;;2.09;89.98;96662.34;5037461;28;20041;-81
2023/02/01 03:37:17;;;;;;;10.40;5.57;;;;;;;2.09;89.72;96648.91;5036466;28;20591;-85
2023/02/01 03:39:50;;;;;;;9.20;5.70;;;;;;;2.12;89.35;96640.31;5038105;28;20417;-81
2023/02/01 03:42:22;;;;;;;8.13;5.00;;;;;;;2.14;89.27;96637.34;5039257;28;20072;-81
2023/02/01 03:44:55;;;;;;;9.55;5.45;;;;;;;2.13;89.38;96635.75;5042669;28;20037;-82
2023/02/01 03:47:24;;;;;;;10.23;5.30;;;;;;;2.15;89.38;96639.81;5036489;28;20053;-81
2023/02/01 03:49:57;;;;;;;8.02;5.05;;;;;;;2.14;89.05;96632.81;5039105;28;20049;-81
2023/02/01 03:52:30;;;;;;;7.20;4.90;;;;;;;2.12;89.30;96613.44;5045425;28;20103;-82
2023/02/01 03:54:57;;;;;;;8.27;5.18;;;;;;;2.19;88.76;96622.09;5038772;28;20045;-79
2023/02/01 03:57:28;;;;;;;9.18;4.85;;;;;;;2.16;88.59;96625.31;5037553;28;20045;-86
2023/02/01 03:59:54;;;;;;;8.00;4.88;;;;;;;2.15;88.74;96614.81;5038937;28;20044;-81
2023/02/01 04:02:20;;;;;;;8.70;4.50;;;;;;;2.15;88.45;96629.06;5039079;28;20045;-80
2023/02/01 04:04:47;;;;;;;7.47;4.10;;;;;;;2.19;88.62;96624.78;5038731;28;20041;-82
2023/02/01 04:07:13;;;;;;;7.78;4.43;;;;;;;2.17;88.44;96637.66;5039545;28;20033;-80
2023/02/01 04:09:41;;;;;;;10.55;5.47;;;;;;;2.18;88.09;96628.53;5044850;28;20048;-82
2023/02/01 04:12:08;;;;;;;8.45;4.70;;;;;;;2.21;88.08;96621.84;5041672;28;20124;-81
2023/02/01 04:14:34;;;;;;;7.50;4.55;;;;;;;2.21;87.72;96616.47;5040191;28;20048;-82
2023/02/01 04:17:01;;;;;;;7.63;4.40;;;;;;;2.24;87.85;96626.69;5039471;28;20041;-81
2023/02/01 04:19:27;;;;;;;7.75;4.47;;;;;;;2.25;87.38;96623.75;5039350;28;20044;-83
2023/02/01 04:21:54;;;;;;;7.75;4.20;;;;;;;2.26;87.38;96620.00;5039062;28;20053;-80
2023/02/01 04:24:20;;;;;;;6.05;3.92;;;;;;;2.33;86.91;96620.59;5046280;28;20045;-81
2023/02/01 04:26:48;;;;;;;7.25;4.95;;;;;;;2.32;86.89;96623.53;5047269;28;20040;-82
2023/02/01 04:29:15;;;;;;;6.43;4.47;;;;;;;2.27;87.28;96615.44;5038541;28;20037;-81
2023/02/01 04:31:41;;;;;;;10.52;4.80;;;;;;;2.27;86.81;96605.50;5036623;28;20045;-81
2023/02/01 04:34:07;;;;;;;9.63;4.40;;;;;;;2.30;86.85;96615.75;5035453;28;20042;-80
2023/02/01 04:36:34;;;;;;;7.22;4.78;;;;;;;2.36;86.53;96616.59;5035649;28;20099;-83
2023/02/01 04:39:00;;;;;;;8.23;4.05;;;;;;;2.35;86.59;96607.72;5034562;28;20068;-81
2023/02/01 04:41:27;;;;;;;8.30;4.63;;;;;;;2.36;86.52;96613.91;5036367;28;20038;-82
2023/02/01 04:43:55;;;;;;;6.55;4.43;;;;;;;2.37;86.23;96614.69;5035300;28;20046;-81
2023/02/01 04:46:21;;;;;;;9.38;4.10;;;;;;;2.36;86.82;96603.16;5034312;28;20502;-81
2023/02/01 04:48:48;;;;;;;8.20;4.15;;;;;;;2.35;86.09;96605.03;5035361;28;20064;-85
2023/02/01 04:51:14;;;;;;;6.95;4.07;;;;;;;2.39;85.88;96612.56;5034624;28;20045;-81
2023/02/01 04:53:41;;;;;;;6.93;4.15;;;;;;;2.35;86.25;96613.09;5035143;28;20120;-81
2023/02/01 04:56:08;;;;;;;7.32;4.55;;;;;;;2.37;86.39;96626.25;5034190;28;20041;-81
2023/02/01 04:58:35;;;;;;;7.88;4.57;;;;;;;2.44;85.68;96623.34;5034792;28;20099;-81
2023/02/01 05:01:05;;;;;;;7.00;4.07;;;;;;;2.42;85.53;96628.16;5034915;28;20053;-81
2023/02/01 05:03:31;;;;;;;6.65;4.20;;;;;;;2.45;85.68;96622.25;5034698;28;20037;-82
2023/02/01 05:05:58;;;;;;;6.15;3.92;;;;;;;2.42;85.82;96618.22;5034743;28;20044;-83
2023/02/01 05:08:25;;;;;;;9.88;4.32;;;;;;;2.46;85.37;96616.66;5034382;28;20045;-82
2023/02/01 05:10:52;;;;;;;6.63;3.88;;;;;;;2.46;85.50;96611.28;5037809;28;20044;-82
2023/02/01 05:16:05;;;;;;;7.18;4.25;;;;;;;2.42;85.71;96617.41;5034403;28;20091;-80
2023/02/01 05:18:31;;;;;;;7.95;4.30;;;;;;;2.46;85.28;96618.53;5042851;28;20037;-82
2023/02/01 05:20:58;;;;;;;9.52;4.45;;;;;;;2.46;85.38;96615.84;5036174;28;20478;-85
2023/02/01 05:23:24;;;;;;;7.68;3.92;;;;;;;2.49;84.84;96623.38;5042290;28;20422;-81
2023/02/01 05:25:50;;;;;;;6.40;4.63;;;;;;;2.54;84.44;96631.47;5034990;28;20037;-82
2023/02/01 05:28:17;;;;;;;9.57;4.22;;;;;;;2.56;84.09;96632.84;5033204;28;20037;-82
2023/02/01 05:30:43;;;;;;;7.75;4.55;;;;;;;2.53;84.40;96632.53;5034759;28;20045;-81
2023/02/01 05:33:11;;;;;;;7.55;5.13;;;;;;;2.53;84.23;96629.84;5034289;28;20041;-82
2023/02/01 05:35:38;;;;;;;7.05;4.35;;;;;;;2.54;83.93;96618.81;5034736;28;20045;-84
2023/02/01 05:38:04;;;;;;;7.80;4.38;;;;;;;2.56;84.13;96618.59;5041986;28;20045;-81
2023/02/01 05:40:31;;;;;;;7.10;4.07;;;;;;;2.54;84.44;96618.03;5036880;28;20044;-81
2023/02/01 05:42:57;;;;;;;8.15;4.07;;;;;;;2.57;84.18;96629.06;5043003;28;20053;-84
2023/02/01 05:45:24;;;;;;;5.93;4.40;;;;;;;2.53;84.49;96629.84;5034381;28;20037;-82
2023/02/01 05:47:50;;;;;;;6.78;3.92;;;;;;;2.47;85.90;96612.06;5034924;28;20561;-82
2023/02/01 05:50:18;;;;;;;9.05;4.70;;;;;;;2.41;86.19;96605.06;5034544;28;20037;-82
2023/02/01 05:52:45;;;;;;;8.68;4.82;;;;;;;2.44;85.69;96596.47;5035026;28;20038;-83
2023/02/01 05:55:11;;;;;;;6.03;4.28;;;;;;;2.48;85.37;96605.63;5042727;28;20052;-84
2023/02/01 05:57:39;;;;;;;7.97;4.65;;;;;;;2.49;84.58;96583.03;5035217;28;20041;-82
2023/02/01 06:00:06;;;;;;;6.15;3.80;;;;;;;2.50;84.57;96593.53;5034213;28;20502;-86
2023/02/01 06:02:33;;;;;;;8.02;4.63;;;;;;;2.48;84.65;96589.50;5035113;28;20045;-81
2023/02/01 06:04:59;;;;;;;6.95;4.60;;;;;;;2.51;84.28;96589.00;5036770;28;20052;-83
2023/02/01 06:07:27;;;;;;;6.88;4.30;;;;;;;2.53;83.96;96592.22;5034788;28;20045;-80
2023/02/01 06:09:54;;;;;;;7.35;4.80;;;;;;;2.54;83.37;96580.38;5036433;28;20060;-85
2023/02/01 06:12:21;;;;;;;8.25;4.50;;;;;;;2.50;84.11;96587.34;5042876;28;20041;-81
2023/02/01 06:14:47;;;;;;;8.45;4.80;;;;;;;2.51;83.42;96578.25;5042227;28;20045;-82
2023/02/01 06:17:14;;;;;;;10.77;4.78;;;;;;;2.49;83.95;96583.03;5035022;28;20045;-82
2023/02/01 06:19:41;;;;;;;9.73;4.43;;;;;;;2.47;83.83;96583.31;5034006;28;20045;-81
2023/02/01 06:22:07;;;;;;;7.47;4.45;;;;;;;2.50;83.32;96581.97;5035138;28;20072;-81
2023/02/01 06:24:35;;;;;;;6.40;4.22;;;;;;;2.52;83.46;96582.53;5055224;28;20040;-81
2023/02/01 06:27:02;;;;;;;6.40;4.32;;;;;;;2.54;83.38;96577.69;5037341;28;20049;-84
2023/02/01 06:29:28;;;;;;;6.78;4.10;;;;;;;2.54;82.89;96572.31;5051108;28;20041;-81
2023/02/01 06:31:55;;;;;;;6.70;3.78;;;;;;;2.61;82.51;96571.03;5035586;28;20045;-80
2023/02/01 06:34:22;;;;;;;7.18;3.95;;;;;;;2.61;82.54;96578.28;5034571;28;20049;-82
2023/02/01 06:36:49;;;;;;;6.97;4.10;;;;;;;2.57;82.93;96567.25;5041843;28;20045;-82
2023/02/01 06:39:16;;;;;;;8.15;4.38;;;;;;;2.59;82.83;96577.72;5035492;28;20041;-81
2023/02/01 06:41:47;;;;;;;7.38;4.63;;;;;;;2.65;82.21;96579.38;5038996;28;20045;-82
2023/02/01 06:44:13;;;;;;;6.50;4.13;;;;;;;2.67;82.18;96577.25;5035248;28;20044;-81
2023/02/01 06:46:40;;;;;;;6.57;3.83;;;;;;;2.65;82.57;96573.97;5035725;28;20037;-82
2023/02/01 06:49:07;;;;;;;10.15;3.67;;;;;;;2.69;82.22;96575.09;5034773;28;20037;-81
2023/02/01 06:51:33;;;;;;;5.85;3.90;;;;;;;2.78;81.37;96578.91;5035747;28;20061;-82
2023/02/01 06:54:00;;;;;;;7.53;3.55;;;;;;;2.78;81.22;96570.03;5043070;28;20072;-84
2023/02/01 06:56:27;;;;;;;9.35;3.75;;;;;;;2.75;81.58;96574.03;5034018;28;20042;-81
2023/02/01 06:58:55;;;;;;;5.97;4.25;;;;;;;2.72;81.45;96558.44;5034580;28;20045;-81
2023/02/01 07:01:21;;;;;;;6.70;3.72;;;;;;;2.77;80.99;96571.91;5034338;28;20053;-83
2023/02/01 07:03:49;;;;;;;8.25;3.65;;;;;;;2.76;81.05;96570.25;5033979;28;20041;-82
2023/02/01 07:06:16;;;;;;;6.10;4.00;;;;;;;2.76;81.05;96569.47;5035689;28;20045;-86
2023/02/01 07:08:42;;;;;;;7.10;4.22;;;;;;;2.78;80.65;96572.72;5036495;28;20493;-82
2023/02/01 07:11:11;;;;;;;5.53;3.67;;;;;;;2.85;79.87;96574.06;5036381;28;20037;-84
2023/02/01 07:13:38;;;;;;;7.95;3.67;;;;;;;2.91;79.48;96582.16;5034385;28;20045;-86
2023/02/01 07:16:09;;;;;;;6.20;3.58;;;;;;;2.89;79.50;96585.13;5043191;28;20044;-84
2023/02/01 07:18:36;;;;;;;5.88;4.47;;;;;;;2.93;78.92;96577.34;5040632;28;20509;-85
2023/02/01 07:21:03;;;;;;;8.00;3.95;;;;;;;2.91;79.37;96563.34;5033120;28;20041;-83
2023/02/01 07:23:29;;;;;;;8.70;3.88;;;;;;;2.96;78.86;96563.34;5034704;28;20049;-83
2023/02/01 07:25:57;;;;;;;6.20;4.25;;;;;;;2.99;78.97;96568.22;5042668;28;20716;-84
2023/02/01 07:28:23;;;;;;;7.13;4.07;;;;;;;2.98;79.75;96580.88;5038717;28;20041;-85
2023/02/01 07:30:51;;;;;;;7.65;3.90;;;;;;;3.02;79.10;96583.81;5036564;28;20037;-90
2023/02/01 07:33:21;;;;;;;6.95;3.58;;;;;;;3.04;78.81;96581.69;5050886;28;20037;-90
2023/02/01 07:35:49;;;;;;;6.68;3.38;;;;;;;3.04;79.08;96576.31;5048083;28;20406;-90
2023/02/01 07:38:15;;;;;;;8.23;4.05;;;;;;;3.00;79.02;96584.09;5034316;28;20076;-86
2023/02/01 07:40:42;;;;;;;6.30;3.90;;;;;;;3.02;78.82;96583.81;5056614;22;20405;-80
2023/02/01 07:43:09;;;;;;;6.10;3.50;;;;;;;3.02;79.28;96591.88;5033185;28;20067;-84
2023/02/01 07:45:36;;;;;;;7.70;3.72;;;;;;;3.01;79.28;96599.16;5029644;28;20041;-82
2023/02/01 07:48:04;;;;;;;5.10;3.50;;;;;;;3.01;79.27;96591.06;5021947;28;20769;-84
2023/02/01 07:50:32;;;;;;;5.90;3.47;;;;;;;3.04;78.82;96595.13;5015340;28;20133;-80
2023/02/01 07:53:00;;;;;;;6.53;3.78;;;;;;;3.08;77.81;96593.50;5025298;28;20048;-81
2023/02/01 07:55:27;;;;;;;6.05;3.22;;;;;;;3.13;78.45;96580.06;5020350;28;20041;-80
2023/02/01 07:57:53;;;;;;;6.15;3.40;;;;;;;3.11;78.14;96580.34;5033263;28;20055;-87
2023/02/01 08:03:05;;;;;;;7.00;3.30;;;;;;;3.21;76.15;96593.03;5011768;28;20044;-87
2023/02/01 08:05:33;;;;;;;5.93;3.03;;;;;;;3.24;76.27;96597.91;5013278;28;20053;-89
2023/02/01 08:08:00;;;;;;;5.13;2.83;;;;;;;3.27;75.84;96597.34;5018769;28;20049;-91
2023/02/01 08:10:27;;;;;;;6.65;3.55;;;;;;;3.28;75.90;96604.34;5029772;28;20041;-88
2023/02/01 08:12:59;;;;;;;7.35;2.95;;;;;;;3.35;74.93;96604.91;5013929;28;20038;-92
2023/02/01 08:15:26;;;;;;;5.13;2.83;;;;;;;3.46;74.82;96618.41;5028956;28;20060;-82
2023/02/01 08:17:54;;;;;;;6.50;2.60;;;;;;;3.44;74.61;96612.47;5043776;28;20501;-87
2023/02/01 08:20:23;;;;;;;4.07;2.70;;;;;;;3.49;73.82;96625.94;5025606;28;20136;-79
2023/02/01 08:22:52;;;;;;;4.97;2.75;;;;;;;3.55;73.96;96619.47;5029377;28;20100;-91
2023/02/01 08:25:18;;;;;;;5.35;2.65;;;;;;;3.55;73.57;96624.88;5022249;28;20588;-85
2023/02/01 08:27:45;;;;;;;3.60;2.53;;;;;;;3.53;74.18;96616.25;5033992;28;20124;-89
2023/02/01 08:30:13;;;;;;;5.88;2.65;;;;;;;3.55;73.95;96608.72;5022346;28;20046;-80
2023/02/01 08:32:40;;;;;;;7.05;2.67;;;;;;;3.58;74.00;96616.25;5033000;28;20041;-84
2023/02/01 08:35:07;;;;;;;3.83;2.70;;;;;;;3.54;74.66;96615.19;5024841;28;20498;-88
2023/02/01 08:37:34;;;;;;;5.50;2.72;;;;;;;3.56;73.72;96613.84;5028565;28;20052;-85
2023/02/01 08:40:03;;;;;;;6.80;2.85;;;;;;;3.57;74.32;96602.00;5027771;28;20042;-84
2023/02/01 08:45:14;;;;;;;4.47;2.90;;;;;;;3.62;73.69;96615.47;5013702;28;20560;-85
2023/02/01 08:47:40;;;;;;;4.32;2.55;;;;;;;3.59;73.83;96623.25;5026318;28;20176;-81
2023/02/01 08:50:08;;;;;;;5.25;2.95;;;;;;;3.70;73.89;96610.63;5023238;28;20038;-78
2023/02/01 08:52:35;;;;;;;4.68;2.60;;;;;;;3.71;73.61;96615.75;5032997;28;20046;-84
2023/02/01 08:55:03;;;;;;;3.95;2.55;;;;;;;3.68;73.08;96616.28;5016330;28;20050;-77
2023/02/01 08:57:30;;;;;;;5.10;2.72;;;;;;;3.70;73.00;96614.13;5027569;28;20045;-80
2023/02/01 08:59:57;;;;;;;4.38;2.58;;;;;;;3.72;73.72;96630.03;5020127;28;20050;-86
2023/02/01 09:02:23;;;;;;;4.78;2.78;;;;;;;3.76;73.59;96626.53;5023322;28;20041;-86
2023/02/01 09:04:50;;;;;;;4.95;2.60;;;;;;;3.84;73.05;96625.19;5025369;28;20045;-84
2023/02/01 09:07:17;;;;;;;3.95;2.90;;;;;;;3.77;72.94;96622.75;5027705;28;20394;-82
2023/02/01 09:09:45;;;;;;;5.13;2.70;;;;;;;3.85;72.19;96624.91;5023125;28;20046;-85
2023/02/01 09:12:12;;;;;;;4.35;2.63;;;;;;;3.86;71.83;96623.03;5025336;28;20056;-84
2023/02/01 09:14:39;;;;;;;4.85;2.72;;;;;;;3.82;71.92;96630.84;5024321;28;20058;-79
2023/02/01 09:17:06;;;;;;;4.88;2.50;;;;;;;3.85;72.42;96627.59;5016254;28;20038;-86
2023/02/01 09:19:32;;;;;;;8.63;2.85;;;;;;;3.90;72.36;96627.59;5016448;28;20073;-86
2023/02/01 09:21:59;;;;;;;6.28;3.10;;;;;;;3.92;72.08;96608.50;5028511;28;20353;-80
2023/02/01 09:24:26;;;;;;;5.15;2.50;;;;;;;4.08;71.11;96620.91;5030800;28;20052;-84
2023/02/01 09:26:52;;;;;;;5.38;2.83;;;;;;;4.04;71.28;96614.41;5022501;28;20109;-82
2023/02/01 09:29:20;;;;;;;5.35;2.72;;;;;;;4.04;70.65;96622.50;5024111;28;20057;-83
2023/02/01 09:31:47;;;;;;;9.80;2.95;;;;;;;4.08;71.23;96645.16;5030671;28;20045;-92
2023/02/01 09:34:14;;;;;;;4.72;3.17;;;;;;;4.06;71.36;96630.31;5032270;28;20045;-85
2023/02/01 09:36:40;;;;;;;6.63;2.90;;;;;;;4.11;71.22;96636.50;5031789;28;20045;-79
2023/02/01 09:39:09;;;;;;;4.60;2.80;;;;;;;4.10;70.35;96631.41;5033138;28;20042;-83
2023/02/01 09:41:47;;;;;;;5.85;2.92;;;;;;;4.10;70.13;96642.97;5028111;28;20046;-79
2023/02/01 09:44:31;;;;;;;5.22;2.75;;;;;;;4.10;70.34;96639.47;5026414;28;20045;-89
2023/02/01 09:47:00;;;;;;;4.38;2.70;;;;;;;4.13;71.01;96653.25;5022638;28;20053;-89
2023/02/01 09:49:31;;;;;;;6.85;2.95;;;;;;;4.09;71.26;96645.97;5035100;28;20049;-87
2023/02/01 09:52:01;;;;;;;6.47;2.90;;;;;;;4.17;71.30;96648.09;5031499;28;20336;-79
2023/02/01 09:54:31;;;;;;;5.07;2.95;;;;;;;4.12;71.10;96648.09;5033838;28;20042;-88
2023/02/01 09:57:04;;;;;;;6.63;2.75;;;;;;;4.13;70.78;96653.25;5017741;28;20052;-92
2023/02/01 09:59:34;;;;;;;;;;;;;;;4.20;70.13;96652.97;5035436;28;20034;-79
2023/02/01 10:02:04;;;;;;;4.50;2.45;;;;;;;4.10;70.91;96663.75;5021617;28;19932;-79
2023/02/01 10:04:30;;;;;;;6.68;2.40;;;;;;;4.09;70.70;96662.13;5013674;28;20053;-84
2023/02/01 10:07:18;;;;;;;5.38;2.30;;;;;;;4.09;69.94;96657.53;5031841;28;20040;-77
2023/02/01 10:10:02;;;;;;;4.10;2.38;;;;;;;4.16;71.21;96657.25;5017325;28;20045;-77
2023/02/01 10:13:00;;;;;;;6.93;2.88;;;;;;;4.07;69.68;96662.41;5010275;28;20616;-89
2023/02/01 10:15:41;;;;;;;6.10;2.60;;;;;;;4.07;69.94;96664.25;5007773;28;20042;-79
2023/02/01 10:18:22;;;;;;;7.28;2.70;;;;;;;4.10;70.33;96652.97;5014923;28;20072;-78
2023/02/01 10:20:58;;;;;;;9.27;2.85;;;;;;;4.03;71.05;96669.41;5024040;28;20052;-83
2023/02/01 10:24:03;;;;;;;5.35;2.90;;;;;;;4.00;70.60;96658.34;5012428;28;20505;-79
2023/02/01 10:26:33;;;;;;;4.63;2.53;;;;;;;3.97;70.56;96669.63;5016149;28;20049;-84
2023/02/01 10:29:03;;;;;;;4.65;2.58;;;;;;;3.97;70.33;96659.69;5021209;28;20050;-84
2023/02/01 10:31:35;;;;;;;5.90;2.40;;;;;;;4.00;71.28;96663.72;5015327;28;20042;-82
2023/02/01 10:34:12;;;;;;;4.82;2.60;;;;;;;3.95;71.09;96655.63;5014500;28;20548;-78
2023/02/01 10:36:43;;;;;;;4.18;2.35;;;;;;;4.01;70.31;96649.19;5016171;28;20042;-78
2023/02/01 10:39:14;;;;;;;4.53;2.65;;;;;;;4.07;70.17;96648.09;5000650;28;20049;-79
2023/02/01 10:41:42;;;;;;;4.50;2.75;;;;;;;4.08;69.60;96663.22;5021313;28;20046;-80
2023/02/01 10:44:14;;;;;;;6.80;2.80;;;;;;;4.07;70.17;96658.88;5028603;28;20046;-78
2023/02/01 10:46:42;;;;;;;5.60;2.67;;;;;;;4.01;70.36;96644.59;5021720;28;20042;-78
2023/02/01 10:49:15;;;;;;;7.35;2.60;;;;;;;4.06;71.35;96655.38;5013695;28;20066;-78
2023/02/01 10:51:46;;;;;;;4.03;2.83;;;;;;;3.96;71.16;96651.88;5027726;28;20133;-80
2023/02/01 10:54:20;;;;;;;5.75;2.50;;;;;;;3.97;71.39;96661.56;5022947;28;20057;-81
2023/02/01 10:56:47;;;;;;;6.55;2.85;;;;;;;3.94;71.25;96649.44;5019133;28;20133;-81
2023/02/01 10:59:18;;;;;;;5.97;3.20;;;;;;;3.91;71.93;96656.19;5022677;28;20404;-78
2023/02/01 11:01:48;;;;;;;5.57;2.80;;;;;;;3.90;71.74;96659.94;5032091;28;20547;-78
2023/02/01 11:04:16;;;;;;;4.55;2.90;;;;;;;3.84;72.44;96661.00;5021934;28;20038;-79
2023/02/01 11:06:44;;;;;;;5.10;2.50;;;;;;;3.85;72.95;96670.72;5021064;28;20493;-78
2023/02/01 11:09:20;;;;;;;4.10;2.40;;;;;;;3.93;72.71;96669.38;5030680;28;20037;-78
2023/02/01 11:11:58;;;;;;;8.05;3.15;;;;;;;3.89;72.84;96674.50;5026892;28;20042;-78
2023/02/01 11:14:35;;;;;;;5.82;2.75;;;;;;;3.81;73.68;96680.41;5012586;28;20080;-78
2023/02/01 11:17:23;;;;;;;8.43;2.75;;;;;;;3.81;74.05;96683.13;5004850;28;20405;-79
2023/02/01 11:19:58;;;;;;;7.35;2.70;;;;;;;3.77;73.38;96676.63;5015907;28;20103;-81
2023/02/01 11:22:26;;;;;;;4.32;2.10;;;;;;;3.77;73.60;96676.63;5013266;28;20066;-77
2023/02/01 11:24:53;;;;;;;8.57;3.33;;;;;;;3.76;73.51;96672.34;5020508;28;20137;-77
2023/02/01 11:27:23;;;;;;;4.75;2.50;;;;;;;3.79;72.60;96677.16;5023546;28;20424;-78
2023/02/01 11:29:52;;;;;;;5.10;2.60;;;;;;;3.78;72.95;96669.34;5032459;28;20516;-79
2023/02/01 11:32:22;;;;;;;5.47;2.40;;;;;;;3.81;73.25;96669.66;5018465;28;20058;-79
2023/02/01 11:34:54;;;;;;;9.20;2.83;;;;;;;3.81;72.65;96658.03;5013326;28;20390;-77
2023/02/01 11:37:28;;;;;;;3.78;2.25;;;;;;;3.83;72.61;96650.50;5011292;28;20057;-80
2023/02/01 11:39:56;;;;;;;5.93;2.03;;;;;;;3.86;72.85;96656.19;5011216;28;20045;-79
2023/02/01 11:42:23;;;;;;;4.55;2.60;;;;;;;3.90;72.68;96633.00;5011393;28;20046;-79
2023/02/01 11:44:50;;;;;;;8.07;3.03;;;;;;;3.95;72.47;96650.25;5018980;28;20409;-78
2023/02/01 11:47:31;;;;;;;4.57;2.55;;;;;;;3.98;72.19;96650.53;5012128;28;20046;-79
2023/02/01 11:50:00;;;;;;;5.03;3.00;;;;;;;3.98;72.35;96650.53;5019810;28;20581;-78
2023/02/01 11:52:50;;;;;;;6.93;2.45;;;;;;;3.92;72.25;96648.91;5012178;28;20042;-77
2023/02/01 11:55:35;;;;;;;5.53;2.53;;;;;;;3.85;73.09;96643.78;5007781;28;20068;-80
2023/02/01 11:58:15;;;;;;;5.00;2.70;;;;;;;3.85;72.54;96635.69;5028076;28;20056;-78
2023/02/01 12:00:59;;;;;;;4.90;2.65;;;;;;;3.80;73.05;96638.38;5021400;28;20038;-78
2023/02/01 12:04:07;;;;;;;6.45;3.17;;;;;;;3.82;74.20;96630.03;5019497;28;20054;-81
2023/02/01 12:06:47;;;;;;;5.90;3.30;;;;;;;3.72;73.83;96614.69;5007455;28;20045;-79
2023/02/01 12:09:31;;;;;;;4.68;3.08;;;;;;;3.77;74.18;96621.97;5015755;28;20513;-82
2023/02/01 12:12:08;;;;;;;6.22;2.92;;;;;;;3.78;74.26;96616.28;5026737;28;20046;-83
2023/02/01 12:14:48;;;;;;;6.20;3.00;;;;;;;3.75;74.35;96621.41;5022664;28;20038;-77
2023/02/01 12:17:39;;;;;;;5.22;3.35;;;;;;;3.70;73.60;96611.44;5014004;28;20489;-83
2023/02/01 12:20:23;;;;;;;6.82;4.00;;;;;;;3.65;74.34;96612.25;5014082;28;20046;-75
2023/02/01 12:23:03;;;;;;;8.75;3.42;;;;;;;3.69;74.87;96607.13;5012621;28;20458;-77
2023/02/01 12:25:45;;;;;;;7.32;3.53;;;;;;;3.67;75.07;96609.28;5012676;28;20073;-76